sensor_id;sensor_type;location;lat;lon;timestamp;P1;durP1;ratioP1;P2;durP2;ratioP2
78799;SDS011;68148;55.328;86.106;2023-03-13T00:01:15;7.20;;;2.75;;
78799;SDS011;68148;55.328;86.106;2023-03-13T00:03:51;6.85;;;1.83;;
78799;SDS011;68148;55.328;86.106;2023-03-13T00:06:17;4.55;;;1.35;;
78799;SDS011;68148;55.328;86.106;2023-03-13T00:08:43;8.30;;;1.52;;
78799;SDS011;68148;55.328;86.106;2023-03-13T00:11:11;14.95;;;2.05;;
78799;SDS011;68148;55.328;86.106;2023-03-13T00:13:41;2.50;;;1.30;;
78799;SDS011;68148;55.328;86.106;2023-03-13T00:16:09;9.60;;;2.28;;
78799;SDS011;68148;55.328;86.106;2023-03-13T00:18:37;2.83;;;1.65;;
78799;SDS011;68148;55.328;86.106;2023-03-13T00:21:04;5.47;;;1.85;;
78799;SDS011;68148;55.328;86.106;2023-03-13T00:23:35;5.32;;;1.75;;
78799;SDS011;68148;55.328;86.106;2023-03-13T00:26:07;7.85;;;2.53;;
78799;SDS011;68148;55.328;86.106;2023-03-13T00:28:36;8.02;;;3.05;;
78799;SDS011;68148;55.328;86.106;2023-03-13T00:31:04;7.53;;;3.38;;
78799;SDS011;68148;55.328;86.106;2023-03-13T00:33:32;21.33;;;3.35;;
78799;SDS011;68148;55.328;86.106;2023-03-13T00:36:07;10.30;;;4.15;;
78799;SDS011;68148;55.328;86.106;2023-03-13T00:38:35;15.15;;;4.32;;
78799;SDS011;68148;55.328;86.106;2023-03-13T00:41:05;18.05;;;7.75;;
78799;SDS011;68148;55.328;86.106;2023-03-13T00:46:02;9.55;;;5.53;;
78799;SDS011;68148;55.328;86.106;2023-03-13T00:48:28;9.82;;;4.78;;
78799;SDS011;68148;55.328;86.106;2023-03-13T00:50:54;9.23;;;4.85;;
78799;SDS011;68148;55.328;86.106;2023-03-13T00:53:20;8.55;;;4.30;;
78799;SDS011;68148;55.328;86.106;2023-03-13T00:56:06;9.73;;;4.13;;
78799;SDS011;68148;55.328;86.106;2023-03-13T00:58:36;10.68;;;4.28;;
78799;SDS011;68148;55.328;86.106;2023-03-13T01:01:19;20.42;;;6.13;;
78799;SDS011;68148;55.328;86.106;2023-03-13T01:03:49;19.77;;;6.32;;
78799;SDS011;68148;55.328;86.106;2023-03-13T01:06:19;19.45;;;6.10;;
78799;SDS011;68148;55.328;86.106;2023-03-13T01:08:48;27.20;;;7.75;;
78799;SDS011;68148;55.328;86.106;2023-03-13T01:11:16;16.45;;;6.88;;
78799;SDS011;68148;55.328;86.106;2023-03-13T01:13:45;14.43;;;5.63;;
78799;SDS011;68148;55.328;86.106;2023-03-13T01:16:13;14.15;;;4.82;;
78799;SDS011;68148;55.328;86.106;2023-03-13T01:18:42;11.73;;;4.68;;
78799;SDS011;68148;55.328;86.106;2023-03-13T01:21:13;8.55;;;3.33;;
78799;SDS011;68148;55.328;86.106;2023-03-13T01:23:40;7.45;;;3.00;;
78799;SDS011;68148;55.328;86.106;2023-03-13T01:26:07;3.65;;;1.65;;
78799;SDS011;68148;55.328;86.106;2023-03-13T01:28:34;8.63;;;2.67;;
78799;SDS011;68148;55.328;86.106;2023-03-13T01:31:00;1.90;;;1.17;;
78799;SDS011;68148;55.328;86.106;2023-03-13T01:33:41;2.50;;;1.40;;
78799;SDS011;68148;55.328;86.106;2023-03-13T01:36:08;9.38;;;1.60;;
78799;SDS011;68148;55.328;86.106;2023-03-13T01:38:34;2.95;;;1.45;;
78799;SDS011;68148;55.328;86.106;2023-03-13T01:41:03;3.42;;;1.15;;
78799;SDS011;68148;55.328;86.106;2023-03-13T01:43:31;14.30;;;1.10;;
78799;SDS011;68148;55.328;86.106;2023-03-13T01:46:01;5.22;;;2.03;;
78799;SDS011;68148;55.328;86.106;2023-03-13T01:51:15;4.88;;;1.88;;
78799;SDS011;68148;55.328;86.106;2023-03-13T01:53:43;2.88;;;1.98;;
78799;SDS011;68148;55.328;86.106;2023-03-13T01:56:21;6.32;;;2.50;;
78799;SDS011;68148;55.328;86.106;2023-03-13T01:58:53;7.93;;;2.47;;
78799;SDS011;68148;55.328;86.106;2023-03-13T02:01:22;4.43;;;1.48;;
78799;SDS011;68148;55.328;86.106;2023-03-13T02:03:49;6.57;;;2.25;;
78799;SDS011;68148;55.328;86.106;2023-03-13T02:06:15;10.35;;;2.08;;
78799;SDS011;68148;55.328;86.106;2023-03-13T02:08:44;3.88;;;2.33;;
78799;SDS011;68148;55.328;86.106;2023-03-13T02:13:54;19.75;;;2.88;;
78799;SDS011;68148;55.328;86.106;2023-03-13T02:16:20;12.20;;;3.90;;
78799;SDS011;68148;55.328;86.106;2023-03-13T02:18:47;11.30;;;3.58;;
78799;SDS011;68148;55.328;86.106;2023-03-13T02:21:15;11.02;;;3.70;;
78799;SDS011;68148;55.328;86.106;2023-03-13T02:26:40;14.68;;;3.60;;
78799;SDS011;68148;55.328;86.106;2023-03-13T02:29:06;12.65;;;3.60;;
78799;SDS011;68148;55.328;86.106;2023-03-13T02:31:35;12.40;;;2.85;;
78799;SDS011;68148;55.328;86.106;2023-03-13T02:34:01;9.32;;;4.55;;
78799;SDS011;68148;55.328;86.106;2023-03-13T02:36:28;8.13;;;3.70;;
78799;SDS011;68148;55.328;86.106;2023-03-13T02:38:55;11.20;;;3.65;;
78799;SDS011;68148;55.328;86.106;2023-03-13T02:41:25;5.32;;;2.35;;
78799;SDS011;68148;55.328;86.106;2023-03-13T02:43:52;10.40;;;3.95;;
78799;SDS011;68148;55.328;86.106;2023-03-13T02:46:19;13.98;;;5.10;;
78799;SDS011;68148;55.328;86.106;2023-03-13T02:48:49;14.18;;;4.30;;
78799;SDS011;68148;55.328;86.106;2023-03-13T02:53:53;15.35;;;5.30;;
78799;SDS011;68148;55.328;86.106;2023-03-13T02:56:24;5.38;;;3.42;;
78799;SDS011;68148;55.328;86.106;2023-03-13T02:58:51;20.75;;;6.95;;
78799;SDS011;68148;55.328;86.106;2023-03-13T03:01:17;16.05;;;5.25;;
78799;SDS011;68148;55.328;86.106;2023-03-13T03:03:44;24.50;;;6.60;;
78799;SDS011;68148;55.328;86.106;2023-03-13T03:06:10;22.67;;;4.85;;
78799;SDS011;68148;55.328;86.106;2023-03-13T03:08:36;11.52;;;4.55;;
78799;SDS011;68148;55.328;86.106;2023-03-13T03:11:02;13.82;;;5.43;;
78799;SDS011;68148;55.328;86.106;2023-03-13T03:13:30;15.77;;;5.15;;
78799;SDS011;68148;55.328;86.106;2023-03-13T03:15:56;17.65;;;4.50;;
78799;SDS011;68148;55.328;86.106;2023-03-13T03:18:23;16.88;;;5.75;;
78799;SDS011;68148;55.328;86.106;2023-03-13T03:20:49;10.27;;;3.30;;
78799;SDS011;68148;55.328;86.106;2023-03-13T03:23:15;10.55;;;4.07;;
78799;SDS011;68148;55.328;86.106;2023-03-13T03:25:41;18.58;;;5.13;;
78799;SDS011;68148;55.328;86.106;2023-03-13T03:28:07;6.90;;;2.40;;
78799;SDS011;68148;55.328;86.106;2023-03-13T03:30:33;8.20;;;3.58;;
78799;SDS011;68148;55.328;86.106;2023-03-13T03:33:01;9.73;;;2.97;;
78799;SDS011;68148;55.328;86.106;2023-03-13T03:35:27;11.40;;;3.05;;
78799;SDS011;68148;55.328;86.106;2023-03-13T03:37:53;7.72;;;3.58;;
78799;SDS011;68148;55.328;86.106;2023-03-13T03:40:19;10.30;;;3.03;;
78799;SDS011;68148;55.328;86.106;2023-03-13T03:42:45;5.78;;;1.85;;
78799;SDS011;68148;55.328;86.106;2023-03-13T03:45:12;9.57;;;5.13;;
78799;SDS011;68148;55.328;86.106;2023-03-13T03:47:38;17.85;;;3.83;;
78799;SDS011;68148;55.328;86.106;2023-03-13T03:50:05;9.02;;;2.22;;
78799;SDS011;68148;55.328;86.106;2023-03-13T03:52:32;12.57;;;4.03;;
78799;SDS011;68148;55.328;86.106;2023-03-13T03:54:58;6.72;;;2.55;;
78799;SDS011;68148;55.328;86.106;2023-03-13T03:57:24;7.95;;;2.72;;
78799;SDS011;68148;55.328;86.106;2023-03-13T03:59:50;11.57;;;3.72;;
78799;SDS011;68148;55.328;86.106;2023-03-13T04:02:16;9.48;;;3.55;;
78799;SDS011;68148;55.328;86.106;2023-03-13T04:04:42;8.55;;;3.17;;
78799;SDS011;68148;55.328;86.106;2023-03-13T04:07:08;10.95;;;3.65;;
78799;SDS011;68148;55.328;86.106;2023-03-13T04:09:44;9.35;;;4.22;;
78799;SDS011;68148;55.328;86.106;2023-03-13T04:12:10;11.00;;;3.90;;
78799;SDS011;68148;55.328;86.106;2023-03-13T04:14:36;9.85;;;3.58;;
78799;SDS011;68148;55.328;86.106;2023-03-13T04:17:02;7.25;;;2.83;;
78799;SDS011;68148;55.328;86.106;2023-03-13T04:19:28;8.00;;;3.15;;
78799;SDS011;68148;55.328;86.106;2023-03-13T04:21:54;8.60;;;3.25;;
78799;SDS011;68148;55.328;86.106;2023-03-13T04:24:20;8.45;;;4.10;;
78799;SDS011;68148;55.328;86.106;2023-03-13T04:26:46;8.35;;;3.03;;
78799;SDS011;68148;55.328;86.106;2023-03-13T04:29:12;7.57;;;3.17;;
78799;SDS011;68148;55.328;86.106;2023-03-13T04:31:38;3.72;;;2.25;;
78799;SDS011;68148;55.328;86.106;2023-03-13T04:34:04;8.15;;;3.05;;
78799;SDS011;68148;55.328;86.106;2023-03-13T04:36:30;9.98;;;3.92;;
78799;SDS011;68148;55.328;86.106;2023-03-13T04:38:56;7.82;;;3.40;;
78799;SDS011;68148;55.328;86.106;2023-03-13T04:41:22;10.20;;;3.28;;
78799;SDS011;68148;55.328;86.106;2023-03-13T04:43:48;12.52;;;3.75;;
78799;SDS011;68148;55.328;86.106;2023-03-13T04:46:14;8.35;;;3.03;;
78799;SDS011;68148;55.328;86.106;2023-03-13T04:48:39;5.68;;;1.48;;
78799;SDS011;68148;55.328;86.106;2023-03-13T04:51:06;5.90;;;2.22;;
78799;SDS011;68148;55.328;86.106;2023-03-13T04:53:32;4.65;;;1.77;;
78799;SDS011;68148;55.328;86.106;2023-03-13T04:55:58;1.80;;;1.00;;
78799;SDS011;68148;55.328;86.106;2023-03-13T04:58:24;3.22;;;1.38;;
78799;SDS011;68148;55.328;86.106;2023-03-13T05:00:50;9.82;;;2.33;;
78799;SDS011;68148;55.328;86.106;2023-03-13T05:03:19;8.48;;;2.50;;
78799;SDS011;68148;55.328;86.106;2023-03-13T05:05:45;5.97;;;1.92;;
78799;SDS011;68148;55.328;86.106;2023-03-13T05:08:11;5.65;;;1.98;;
78799;SDS011;68148;55.328;86.106;2023-03-13T05:10:37;5.35;;;1.58;;
78799;SDS011;68148;55.328;86.106;2023-03-13T05:13:03;7.32;;;2.38;;
78799;SDS011;68148;55.328;86.106;2023-03-13T05:15:29;4.18;;;1.70;;
78799;SDS011;68148;55.328;86.106;2023-03-13T05:17:55;8.85;;;2.30;;
78799;SDS011;68148;55.328;86.106;2023-03-13T05:20:21;6.05;;;2.53;;
78799;SDS011;68148;55.328;86.106;2023-03-13T05:22:47;6.05;;;1.60;;
78799;SDS011;68148;55.328;86.106;2023-03-13T05:25:13;6.55;;;1.70;;
78799;SDS011;68148;55.328;86.106;2023-03-13T05:27:41;4.13;;;1.30;;
78799;SDS011;68148;55.328;86.106;2023-03-13T05:30:07;3.75;;;1.60;;
78799;SDS011;68148;55.328;86.106;2023-03-13T05:32:34;3.83;;;1.25;;
78799;SDS011;68148;55.328;86.106;2023-03-13T05:35:00;4.15;;;1.45;;
78799;SDS011;68148;55.328;86.106;2023-03-13T05:37:26;3.55;;;1.17;;
78799;SDS011;68148;55.328;86.106;2023-03-13T05:39:52;4.38;;;1.63;;
78799;SDS011;68148;55.328;86.106;2023-03-13T05:42:17;4.03;;;1.67;;
78799;SDS011;68148;55.328;86.106;2023-03-13T05:44:44;10.35;;;2.60;;
78799;SDS011;68148;55.328;86.106;2023-03-13T05:47:11;4.20;;;1.17;;
78799;SDS011;68148;55.328;86.106;2023-03-13T05:49:37;3.42;;;1.48;;
78799;SDS011;68148;55.328;86.106;2023-03-13T05:52:04;6.68;;;1.48;;
78799;SDS011;68148;55.328;86.106;2023-03-13T05:54:30;4.80;;;1.25;;
78799;SDS011;68148;55.328;86.106;2023-03-13T05:56:56;2.55;;;1.52;;
78799;SDS011;68148;55.328;86.106;2023-03-13T05:59:22;3.65;;;1.27;;
78799;SDS011;68148;55.328;86.106;2023-03-13T06:01:47;5.10;;;1.63;;
78799;SDS011;68148;55.328;86.106;2023-03-13T06:04:14;2.80;;;1.00;;
78799;SDS011;68148;55.328;86.106;2023-03-13T06:06:41;4.25;;;1.08;;
78799;SDS011;68148;55.328;86.106;2023-03-13T06:09:07;5.00;;;1.02;;
78799;SDS011;68148;55.328;86.106;2023-03-13T06:11:34;4.82;;;1.05;;
78799;SDS011;68148;55.328;86.106;2023-03-13T06:14:00;5.05;;;1.20;;
78799;SDS011;68148;55.328;86.106;2023-03-13T06:16:26;2.20;;;0.88;;
78799;SDS011;68148;55.328;86.106;2023-03-13T06:18:52;3.80;;;1.17;;
78799;SDS011;68148;55.328;86.106;2023-03-13T06:21:18;2.47;;;1.15;;
78799;SDS011;68148;55.328;86.106;2023-03-13T06:23:44;5.72;;;1.20;;
78799;SDS011;68148;55.328;86.106;2023-03-13T06:26:10;3.90;;;1.10;;
78799;SDS011;68148;55.328;86.106;2023-03-13T06:28:36;5.93;;;1.60;;
78799;SDS011;68148;55.328;86.106;2023-03-13T06:31:03;3.22;;;1.20;;
78799;SDS011;68148;55.328;86.106;2023-03-13T06:33:30;3.80;;;1.52;;
78799;SDS011;68148;55.328;86.106;2023-03-13T06:35:59;3.47;;;1.27;;
78799;SDS011;68148;55.328;86.106;2023-03-13T06:38:26;2.88;;;1.05;;
78799;SDS011;68148;55.328;86.106;2023-03-13T06:40:52;4.55;;;1.20;;
78799;SDS011;68148;55.328;86.106;2023-03-13T06:43:19;2.88;;;1.02;;
78799;SDS011;68148;55.328;86.106;2023-03-13T06:45:46;2.53;;;0.75;;
78799;SDS011;68148;55.328;86.106;2023-03-13T06:48:12;0.77;;;0.40;;
78799;SDS011;68148;55.328;86.106;2023-03-13T06:50:39;4.20;;;1.17;;
78799;SDS011;68148;55.328;86.106;2023-03-13T06:53:06;4.18;;;1.00;;
78799;SDS011;68148;55.328;86.106;2023-03-13T06:55:32;0.80;;;0.30;;
78799;SDS011;68148;55.328;86.106;2023-03-13T06:57:59;1.98;;;0.65;;
78799;SDS011;68148;55.328;86.106;2023-03-13T07:00:25;4.05;;;1.00;;
78799;SDS011;68148;55.328;86.106;2023-03-13T07:02:51;2.38;;;0.88;;
78799;SDS011;68148;55.328;86.106;2023-03-13T07:05:17;1.98;;;0.85;;
78799;SDS011;68148;55.328;86.106;2023-03-13T07:07:45;0.70;;;0.50;;
78799;SDS011;68148;55.328;86.106;2023-03-13T07:10:12;5.95;;;1.02;;
78799;SDS011;68148;55.328;86.106;2023-03-13T07:12:38;2.22;;;0.82;;
78799;SDS011;68148;55.328;86.106;2023-03-13T07:15:04;1.67;;;0.40;;
78799;SDS011;68148;55.328;86.106;2023-03-13T07:17:30;0.75;;;0.32;;
78799;SDS011;68148;55.328;86.106;2023-03-13T07:19:56;1.65;;;0.70;;
78799;SDS011;68148;55.328;86.106;2023-03-13T07:22:28;2.72;;;0.52;;
78799;SDS011;68148;55.328;86.106;2023-03-13T07:24:54;1.83;;;0.45;;
78799;SDS011;68148;55.328;86.106;2023-03-13T07:27:21;2.42;;;0.80;;
78799;SDS011;68148;55.328;86.106;2023-03-13T07:29:48;3.03;;;1.00;;
78799;SDS011;68148;55.328;86.106;2023-03-13T07:32:14;4.95;;;1.38;;
78799;SDS011;68148;55.328;86.106;2023-03-13T07:37:08;0.75;;;0.55;;
78799;SDS011;68148;55.328;86.106;2023-03-13T07:39:35;1.67;;;1.10;;
78799;SDS011;68148;55.328;86.106;2023-03-13T07:42:01;1.70;;;0.88;;
78799;SDS011;68148;55.328;86.106;2023-03-13T07:44:27;0.70;;;0.40;;
78799;SDS011;68148;55.328;86.106;2023-03-13T07:46:53;2.47;;;0.70;;
78799;SDS011;68148;55.328;86.106;2023-03-13T07:49:19;2.38;;;0.63;;
78799;SDS011;68148;55.328;86.106;2023-03-13T07:51:45;3.42;;;1.42;;
78799;SDS011;68148;55.328;86.106;2023-03-13T07:54:11;2.95;;;0.93;;
78799;SDS011;68148;55.328;86.106;2023-03-13T07:56:37;3.10;;;1.30;;
78799;SDS011;68148;55.328;86.106;2023-03-13T07:59:04;3.85;;;1.15;;
78799;SDS011;68148;55.328;86.106;2023-03-13T08:01:30;5.30;;;1.17;;
78799;SDS011;68148;55.328;86.106;2023-03-13T08:03:56;2.30;;;0.93;;
78799;SDS011;68148;55.328;86.106;2023-03-13T08:06:23;3.50;;;1.38;;
78799;SDS011;68148;55.328;86.106;2023-03-13T08:08:51;1.52;;;0.55;;
78799;SDS011;68148;55.328;86.106;2023-03-13T08:11:19;1.48;;;0.52;;
78799;SDS011;68148;55.328;86.106;2023-03-13T08:13:46;1.65;;;0.50;;
78799;SDS011;68148;55.328;86.106;2023-03-13T08:16:14;0.98;;;0.17;;
78799;SDS011;68148;55.328;86.106;2023-03-13T08:18:42;1.20;;;0.57;;
78799;SDS011;68148;55.328;86.106;2023-03-13T08:21:11;1.83;;;0.70;;
78799;SDS011;68148;55.328;86.106;2023-03-13T08:23:39;3.55;;;1.08;;
78799;SDS011;68148;55.328;86.106;2023-03-13T08:26:06;1.15;;;0.30;;
78799;SDS011;68148;55.328;86.106;2023-03-13T08:28:40;0.82;;;0.43;;
78799;SDS011;68148;55.328;86.106;2023-03-13T08:33:44;1.40;;;0.30;;
78799;SDS011;68148;55.328;86.106;2023-03-13T08:36:15;2.22;;;0.60;;
78799;SDS011;68148;55.328;86.106;2023-03-13T08:38:54;1.70;;;0.82;;
78799;SDS011;68148;55.328;86.106;2023-03-13T08:41:23;2.45;;;0.80;;
78799;SDS011;68148;55.328;86.106;2023-03-13T08:43:51;5.40;;;1.60;;
78799;SDS011;68148;55.328;86.106;2023-03-13T08:46:17;3.65;;;1.00;;
78799;SDS011;68148;55.328;86.106;2023-03-13T08:48:43;1.20;;;0.50;;
78799;SDS011;68148;55.328;86.106;2023-03-13T08:51:10;2.38;;;0.65;;
78799;SDS011;68148;55.328;86.106;2023-03-13T08:53:38;1.58;;;0.85;;
78799;SDS011;68148;55.328;86.106;2023-03-13T08:56:06;2.40;;;1.27;;
78799;SDS011;68148;55.328;86.106;2023-03-13T08:58:33;2.42;;;0.50;;
78799;SDS011;68148;55.328;86.106;2023-03-13T09:01:06;1.58;;;0.50;;
78799;SDS011;68148;55.328;86.106;2023-03-13T09:03:38;2.03;;;0.63;;
78799;SDS011;68148;55.328;86.106;2023-03-13T09:06:07;2.97;;;0.70;;
78799;SDS011;68148;55.328;86.106;2023-03-13T09:08:35;2.90;;;0.90;;
78799;SDS011;68148;55.328;86.106;2023-03-13T09:11:03;1.52;;;1.00;;
78799;SDS011;68148;55.328;86.106;2023-03-13T09:13:32;2.05;;;0.75;;
78799;SDS011;68148;55.328;86.106;2023-03-13T09:18:27;3.05;;;1.10;;
78799;SDS011;68148;55.328;86.106;2023-03-13T09:20:53;2.22;;;1.17;;
78799;SDS011;68148;55.328;86.106;2023-03-13T09:23:20;2.50;;;0.95;;
78799;SDS011;68148;55.328;86.106;2023-03-13T09:25:48;2.42;;;0.65;;
78799;SDS011;68148;55.328;86.106;2023-03-13T09:28:16;1.23;;;0.68;;
78799;SDS011;68148;55.328;86.106;2023-03-13T09:30:42;0.82;;;0.35;;
78799;SDS011;68148;55.328;86.106;2023-03-13T09:33:08;1.70;;;0.57;;
78799;SDS011;68148;55.328;86.106;2023-03-13T09:35:38;0.63;;;0.30;;
78799;SDS011;68148;55.328;86.106;2023-03-13T09:38:05;3.00;;;0.57;;
78799;SDS011;68148;55.328;86.106;2023-03-13T09:40:40;0.98;;;0.40;;
78799;SDS011;68148;55.328;86.106;2023-03-13T09:46:21;3.78;;;1.88;;
78799;SDS011;68148;55.328;86.106;2023-03-13T09:48:58;1.33;;;0.50;;
78799;SDS011;68148;55.328;86.106;2023-03-13T09:51:28;0.98;;;0.43;;
78799;SDS011;68148;55.328;86.106;2023-03-13T09:57:02;4.68;;;2.20;;
78799;SDS011;68148;55.328;86.106;2023-03-13T10:02:13;2.30;;;1.10;;
78799;SDS011;68148;55.328;86.106;2023-03-13T10:05:11;2.65;;;1.15;;
78799;SDS011;68148;55.328;86.106;2023-03-13T10:07:39;4.75;;;2.20;;
78799;SDS011;68148;55.328;86.106;2023-03-13T10:10:09;6.80;;;2.42;;
78799;SDS011;68148;55.328;86.106;2023-03-13T10:12:39;7.97;;;2.05;;
78799;SDS011;68148;55.328;86.106;2023-03-13T10:16:10;11.55;;;2.70;;
78799;SDS011;68148;55.328;86.106;2023-03-13T10:18:16;6.32;;;1.73;;
78799;SDS011;68148;55.328;86.106;2023-03-13T10:20:44;3.65;;;1.50;;
78799;SDS011;68148;55.328;86.106;2023-03-13T10:23:19;9.23;;;2.42;;
78799;SDS011;68148;55.328;86.106;2023-03-13T10:28:13;6.57;;;1.75;;
78799;SDS011;68148;55.328;86.106;2023-03-13T10:30:50;1.77;;;0.68;;
78799;SDS011;68148;55.328;86.106;2023-03-13T10:33:26;3.58;;;1.52;;
78799;SDS011;68148;55.328;86.106;2023-03-13T10:36:00;2.78;;;1.08;;
78799;SDS011;68148;55.328;86.106;2023-03-13T10:38:42;5.75;;;1.38;;
78799;SDS011;68148;55.328;86.106;2023-03-13T10:43:59;6.45;;;1.98;;
78799;SDS011;68148;55.328;86.106;2023-03-13T10:46:31;8.75;;;1.98;;
78799;SDS011;68148;55.328;86.106;2023-03-13T10:51:38;7.30;;;2.03;;
78799;SDS011;68148;55.328;86.106;2023-03-13T10:54:47;6.05;;;1.73;;
78799;SDS011;68148;55.328;86.106;2023-03-13T10:57:20;5.20;;;1.75;;
78799;SDS011;68148;55.328;86.106;2023-03-13T10:59:56;6.15;;;1.90;;
78799;SDS011;68148;55.328;86.106;2023-03-13T11:02:35;8.82;;;1.33;;
78799;SDS011;68148;55.328;86.106;2023-03-13T11:07:48;5.25;;;0.85;;
78799;SDS011;68148;55.328;86.106;2023-03-13T11:10:24;7.70;;;1.88;;
78799;SDS011;68148;55.328;86.106;2023-03-13T11:12:55;6.78;;;2.47;;
78799;SDS011;68148;55.328;86.106;2023-03-13T11:15:24;6.05;;;2.28;;
78799;SDS011;68148;55.328;86.106;2023-03-13T11:18:04;5.22;;;2.40;;
78799;SDS011;68148;55.328;86.106;2023-03-13T11:20:38;6.88;;;2.25;;
78799;SDS011;68148;55.328;86.106;2023-03-13T11:36:34;8.95;;;2.83;;
78799;SDS011;68148;55.328;86.106;2023-03-13T11:41:43;8.73;;;3.30;;
78799;SDS011;68148;55.328;86.106;2023-03-13T11:55:45;15.38;;;4.97;;
78799;SDS011;68148;55.328;86.106;2023-03-13T12:01:29;19.38;;;5.45;;
78799;SDS011;68148;55.328;86.106;2023-03-13T12:04:07;17.10;;;4.50;;
78799;SDS011;68148;55.328;86.106;2023-03-13T12:06:49;16.27;;;4.55;;
78799;SDS011;68148;55.328;86.106;2023-03-13T12:09:30;15.13;;;4.05;;
78799;SDS011;68148;55.328;86.106;2023-03-13T12:12:18;11.30;;;3.67;;
78799;SDS011;68148;55.328;86.106;2023-03-13T12:14:59;9.30;;;2.97;;
78799;SDS011;68148;55.328;86.106;2023-03-13T12:17:51;7.18;;;2.50;;
78799;SDS011;68148;55.328;86.106;2023-03-13T12:20:21;8.77;;;2.70;;
78799;SDS011;68148;55.328;86.106;2023-03-13T12:23:16;6.45;;;1.45;;
78799;SDS011;68148;55.328;86.106;2023-03-13T12:26:27;4.72;;;1.05;;
78799;SDS011;68148;55.328;86.106;2023-03-13T12:29:00;3.00;;;1.13;;
78799;SDS011;68148;55.328;86.106;2023-03-13T12:31:42;6.03;;;1.27;;
78799;SDS011;68148;55.328;86.106;2023-03-13T12:34:26;10.18;;;2.30;;
78799;SDS011;68148;55.328;86.106;2023-03-13T12:36:58;10.00;;;3.22;;
78799;SDS011;68148;55.328;86.106;2023-03-13T12:39:48;5.82;;;2.40;;
78799;SDS011;68148;55.328;86.106;2023-03-13T12:45:06;6.82;;;2.03;;
78799;SDS011;68148;55.328;86.106;2023-03-13T12:47:52;7.60;;;1.75;;
78799;SDS011;68148;55.328;86.106;2023-03-13T13:04:15;6.90;;;2.00;;
78799;SDS011;68148;55.328;86.106;2023-03-13T13:06:54;7.32;;;2.22;;
78799;SDS011;68148;55.328;86.106;2023-03-13T13:23:20;4.97;;;1.30;;
78799;SDS011;68148;55.328;86.106;2023-03-13T13:25:56;5.53;;;2.30;;
78799;SDS011;68148;55.328;86.106;2023-03-13T13:28:51;5.28;;;1.80;;
78799;SDS011;68148;55.328;86.106;2023-03-13T13:34:37;6.50;;;1.70;;
78799;SDS011;68148;55.328;86.106;2023-03-13T13:36:55;7.03;;;2.22;;
78799;SDS011;68148;55.328;86.106;2023-03-13T13:45:57;14.57;;;4.20;;
78799;SDS011;68148;55.328;86.106;2023-03-13T13:49:21;14.23;;;3.95;;
78799;SDS011;68148;55.328;86.106;2023-03-13T13:51:41;19.17;;;5.25;;
78799;SDS011;68148;55.328;86.106;2023-03-13T14:00:04;12.55;;;3.20;;
78799;SDS011;68148;55.328;86.106;2023-03-13T14:02:54;15.80;;;4.95;;
78799;SDS011;68148;55.328;86.106;2023-03-13T14:05:22;18.88;;;6.05;;
78799;SDS011;68148;55.328;86.106;2023-03-13T14:10:42;29.17;;;6.50;;
78799;SDS011;68148;55.328;86.106;2023-03-13T14:13:15;22.92;;;6.05;;
78799;SDS011;68148;55.328;86.106;2023-03-13T14:15:44;23.25;;;6.70;;
78799;SDS011;68148;55.328;86.106;2023-03-13T14:18:24;17.17;;;4.72;;
78799;SDS011;68148;55.328;86.106;2023-03-13T14:20:59;23.17;;;7.30;;
78799;SDS011;68148;55.328;86.106;2023-03-13T14:23:41;19.42;;;6.75;;
78799;SDS011;68148;55.328;86.106;2023-03-13T14:26:13;24.20;;;6.47;;
78799;SDS011;68148;55.328;86.106;2023-03-13T14:28:41;19.50;;;5.75;;
78799;SDS011;68148;55.328;86.106;2023-03-13T14:31:08;18.25;;;5.93;;
78799;SDS011;68148;55.328;86.106;2023-03-13T14:33:34;18.65;;;5.55;;
78799;SDS011;68148;55.328;86.106;2023-03-13T14:36:01;23.85;;;6.60;;
78799;SDS011;68148;55.328;86.106;2023-03-13T14:38:27;12.23;;;4.82;;
78799;SDS011;68148;55.328;86.106;2023-03-13T14:40:54;14.15;;;5.53;;
78799;SDS011;68148;55.328;86.106;2023-03-13T14:43:29;19.00;;;6.72;;
78799;SDS011;68148;55.328;86.106;2023-03-13T14:46:00;18.73;;;5.47;;
78799;SDS011;68148;55.328;86.106;2023-03-13T14:48:47;12.90;;;4.40;;
78799;SDS011;68148;55.328;86.106;2023-03-13T14:51:16;11.02;;;3.50;;
78799;SDS011;68148;55.328;86.106;2023-03-13T14:56:37;9.20;;;3.05;;
78799;SDS011;68148;55.328;86.106;2023-03-13T14:59:06;10.05;;;2.90;;
78799;SDS011;68148;55.328;86.106;2023-03-13T15:01:42;9.38;;;2.53;;
78799;SDS011;68148;55.328;86.106;2023-03-13T15:04:08;9.65;;;2.22;;
78799;SDS011;68148;55.328;86.106;2023-03-13T15:06:34;10.30;;;3.53;;
78799;SDS011;68148;55.328;86.106;2023-03-13T15:11:54;15.90;;;5.55;;
78799;SDS011;68148;55.328;86.106;2023-03-13T15:14:42;10.30;;;4.30;;
78799;SDS011;68148;55.328;86.106;2023-03-13T15:17:14;13.05;;;5.15;;
78799;SDS011;68148;55.328;86.106;2023-03-13T15:19:49;11.40;;;3.67;;
78799;SDS011;68148;55.328;86.106;2023-03-13T15:22:17;11.52;;;3.20;;
78799;SDS011;68148;55.328;86.106;2023-03-13T15:27:39;9.93;;;2.90;;
78799;SDS011;68148;55.328;86.106;2023-03-13T15:30:06;20.23;;;4.25;;
78799;SDS011;68148;55.328;86.106;2023-03-13T15:32:34;14.57;;;4.43;;
78799;SDS011;68148;55.328;86.106;2023-03-13T15:37:52;20.00;;;5.47;;
78799;SDS011;68148;55.328;86.106;2023-03-13T15:40:18;19.23;;;5.97;;
78799;SDS011;68148;55.328;86.106;2023-03-13T15:42:44;14.30;;;4.97;;
78799;SDS011;68148;55.328;86.106;2023-03-13T15:48:59;14.80;;;5.57;;
78799;SDS011;68148;55.328;86.106;2023-03-13T15:51:51;12.70;;;3.67;;
78799;SDS011;68148;55.328;86.106;2023-03-13T15:54:17;17.30;;;5.35;;
78799;SDS011;68148;55.328;86.106;2023-03-13T15:56:43;18.50;;;5.90;;
78799;SDS011;68148;55.328;86.106;2023-03-13T15:59:10;20.45;;;5.65;;
78799;SDS011;68148;55.328;86.106;2023-03-13T16:01:37;16.73;;;4.68;;
78799;SDS011;68148;55.328;86.106;2023-03-13T16:04:03;18.27;;;5.90;;
78799;SDS011;68148;55.328;86.106;2023-03-13T16:06:31;15.85;;;4.50;;
78799;SDS011;68148;55.328;86.106;2023-03-13T16:08:57;16.98;;;5.82;;
78799;SDS011;68148;55.328;86.106;2023-03-13T16:11:24;19.88;;;6.50;;
78799;SDS011;68148;55.328;86.106;2023-03-13T16:13:51;30.98;;;6.65;;
78799;SDS011;68148;55.328;86.106;2023-03-13T16:16:18;15.63;;;4.78;;
78799;SDS011;68148;55.328;86.106;2023-03-13T16:18:47;20.17;;;5.65;;
78799;SDS011;68148;55.328;86.106;2023-03-13T16:21:18;18.65;;;6.18;;
78799;SDS011;68148;55.328;86.106;2023-03-13T16:23:49;18.65;;;5.53;;
78799;SDS011;68148;55.328;86.106;2023-03-13T16:26:16;18.17;;;6.90;;
78799;SDS011;68148;55.328;86.106;2023-03-13T16:28:44;15.63;;;5.72;;
78799;SDS011;68148;55.328;86.106;2023-03-13T16:31:15;15.45;;;5.30;;
78799;SDS011;68148;55.328;86.106;2023-03-13T16:33:46;18.77;;;5.65;;
78799;SDS011;68148;55.328;86.106;2023-03-13T16:36:14;22.65;;;5.38;;
78799;SDS011;68148;55.328;86.106;2023-03-13T16:38:42;11.65;;;3.75;;
78799;SDS011;68148;55.328;86.106;2023-03-13T16:41:11;15.98;;;5.13;;
78799;SDS011;68148;55.328;86.106;2023-03-13T16:43:48;18.67;;;6.03;;
78799;SDS011;68148;55.328;86.106;2023-03-13T16:46:16;22.77;;;6.53;;
78799;SDS011;68148;55.328;86.106;2023-03-13T16:48:47;23.33;;;6.78;;
78799;SDS011;68148;55.328;86.106;2023-03-13T16:51:18;19.25;;;6.10;;
78799;SDS011;68148;55.328;86.106;2023-03-13T16:53:46;16.10;;;5.13;;
78799;SDS011;68148;55.328;86.106;2023-03-13T16:58:48;17.98;;;5.18;;
78799;SDS011;68148;55.328;86.106;2023-03-13T17:01:14;15.65;;;3.95;;
78799;SDS011;68148;55.328;86.106;2023-03-13T17:03:41;14.00;;;4.65;;